createdAt,value
2022-11-10T00:02:03.412Z,97155.78
2022-11-10T00:04:31.251Z,97150.69
2022-11-10T00:06:59.048Z,97159.34
2022-11-10T00:09:26.260Z,97160.28
2022-11-10T00:11:53.430Z,97167.91
2022-11-10T00:14:20.791Z,97163.72
2022-11-10T00:16:49.740Z,97165.44
2022-11-10T00:19:16.762Z,97161.19
2022-11-10T00:21:44.205Z,97168.00
2022-11-10T00:24:11.189Z,97170.59
2022-11-10T00:26:38.290Z,97172.16
2022-11-10T00:29:05.424Z,97179.91
2022-11-10T00:31:32.367Z,97160.97
2022-11-10T00:34:01.209Z,97172.13
2022-11-10T00:36:28.596Z,97177.22
2022-11-10T00:38:55.525Z,97174.69
2022-11-10T00:41:24.387Z,97179.91
2022-11-10T00:43:51.540Z,97187.75
2022-11-10T00:46:18.853Z,97194.69
2022-11-10T00:48:46.355Z,97177.59
2022-11-10T00:51:21.141Z,97193.94
2022-11-10T00:53:48.644Z,97193.22
2022-11-10T00:56:16.150Z,97188.28
2022-11-10T00:58:44.301Z,97194.22
2022-11-10T01:01:12.624Z,97198.69
2022-11-10T01:03:39.911Z,97197.84
2022-11-10T01:06:08.811Z,97185.13
2022-11-10T01:08:38.119Z,97207.53
2022-11-10T01:11:07.522Z,97213.47
2022-11-10T01:13:35.160Z,97217.84
2022-11-10T01:16:06.706Z,97205.13
2022-11-10T01:18:34.400Z,97206.09
2022-11-10T01:21:01.723Z,97204.31
2022-11-10T01:23:29.183Z,97212.03
2022-11-10T01:26:00.818Z,97209.41
2022-11-10T01:28:28.352Z,97215.38
2022-11-10T01:30:58.798Z,97208.41
2022-11-10T01:33:26.881Z,97217.19
2022-11-10T01:35:54.001Z,97209.50
2022-11-10T01:38:22.539Z,97225.00
2022-11-10T01:40:50.392Z,97218.19
2022-11-10T01:43:19.320Z,97232.63
2022-11-10T01:45:52.923Z,97225.81
2022-11-10T01:48:29.010Z,97241.25
2022-11-10T01:50:57.466Z,97236.22
2022-11-10T01:53:28.857Z,97236.13
2022-11-10T01:55:57.072Z,97245.59
2022-11-10T01:58:29.943Z,97256.81
2022-11-10T02:00:57.471Z,97248.22
2022-11-10T02:03:34.821Z,97253.38
2022-11-10T02:06:02.616Z,97258.47
2022-11-10T02:08:30.552Z,97246.63
2022-11-10T02:10:58.248Z,97255.31
2022-11-10T02:13:26.986Z,97251.06
2022-11-10T02:15:54.396Z,97252.84
2022-11-10T02:18:21.903Z,97258.78
2022-11-10T02:20:50.743Z,97251.19
2022-11-10T02:23:46.385Z,97260.91
2022-11-10T02:26:16.152Z,97254.94
2022-11-10T02:28:43.686Z,97260.91
2022-11-10T02:31:11.134Z,97266.84
2022-11-10T02:33:38.044Z,97266.00
2022-11-10T02:36:08.807Z,97267.75
2022-11-10T02:38:36.326Z,97267.75
2022-11-10T02:41:04.140Z,97263.53
2022-11-10T02:43:31.350Z,97269.66
2022-11-10T02:45:59.217Z,97267.91
2022-11-10T02:48:26.728Z,97269.47
2022-11-10T02:50:54.244Z,97259.22
2022-11-10T02:53:23.236Z,97273.09
2022-11-10T02:55:50.862Z,97278.44
2022-11-10T02:58:18.108Z,97286.84
2022-11-10T03:00:45.534Z,97285.16
2022-11-10T03:03:12.822Z,97281.75
2022-11-10T03:05:40.315Z,97297.22
2022-11-10T03:08:07.850Z,97299.91
2022-11-10T03:10:36.427Z,97297.28
2022-11-10T03:13:03.416Z,97293.94
2022-11-10T03:15:30.721Z,97304.13
2022-11-10T03:18:02.858Z,97305.94
2022-11-10T03:20:30.549Z,97308.50
2022-11-10T03:23:02.360Z,97306.88
2022-11-10T03:25:29.916Z,97311.06
2022-11-10T03:27:59.209Z,97304.16
2022-11-10T03:30:27.072Z,97300.81
2022-11-10T03:32:54.353Z,97315.25
2022-11-10T03:35:22.091Z,97315.09
2022-11-10T03:37:49.950Z,97310.75
2022-11-10T03:40:17.448Z,97320.13
2022-11-10T03:42:45.911Z,97319.28
2022-11-10T03:45:16.675Z,97323.41
2022-11-10T03:47:46.556Z,97327.59
2022-11-10T03:50:14.327Z,97330.91
2022-11-10T03:52:44.321Z,97336.91
2022-11-10T03:55:14.664Z,97342.91
2022-11-10T03:57:41.908Z,97342.06
2022-11-10T04:00:11.474Z,97346.31
2022-11-10T04:02:41.373Z,97347.13
2022-11-10T04:05:09.914Z,97358.16
2022-11-10T04:07:37.144Z,97352.06
2022-11-10T04:10:04.959Z,97341.84
2022-11-10T04:12:32.262Z,97345.38
2022-11-10T04:14:59.695Z,97350.63
2022-11-10T04:17:27.178Z,97354.16
2022-11-10T04:19:56.600Z,97362.66
2022-11-10T04:22:24.136Z,97363.50
2022-11-10T04:24:51.039Z,97359.22
2022-11-10T04:27:18.356Z,97354.16
2022-11-10T04:29:45.516Z,97368.75
2022-11-10T04:32:12.807Z,97361.84
2022-11-10T04:34:40.169Z,97363.69
2022-11-10T04:37:09.251Z,97364.56
2022-11-10T04:39:36.347Z,97356.16
2022-11-10T04:42:03.690Z,97369.00
2022-11-10T04:44:31.191Z,97369.84
2022-11-10T04:46:58.426Z,97368.22
2022-11-10T04:49:25.897Z,97383.59
2022-11-10T04:51:53.364Z,97393.06
2022-11-10T04:54:22.883Z,97394.81
2022-11-10T04:56:50.380Z,97399.03
2022-11-10T04:59:17.601Z,97398.16
2022-11-10T05:01:44.543Z,97399.84
2022-11-10T05:04:11.679Z,97397.41
2022-11-10T05:06:38.830Z,97396.63
2022-11-10T05:09:06.011Z,97405.19
2022-11-10T05:11:34.548Z,97404.41
2022-11-10T05:14:01.820Z,97417.19
2022-11-10T05:16:29.070Z,97410.34
2022-11-10T05:18:56.398Z,97407.75
2022-11-10T05:21:23.562Z,97411.25
2022-11-10T05:23:50.697Z,97422.38
2022-11-10T05:26:18.480Z,97429.19
2022-11-10T05:28:47.220Z,97418.94
2022-11-10T05:31:14.463Z,97418.81
2022-11-10T05:33:41.765Z,97429.06
2022-11-10T05:36:11.409Z,97430.78
2022-11-10T05:38:43.199Z,97428.34
2022-11-10T05:41:11.283Z,97442.00
2022-11-10T05:43:38.386Z,97440.38
2022-11-10T05:46:07.634Z,97435.38
2022-11-10T05:48:34.656Z,97440.44
2022-11-10T05:51:01.735Z,97441.31
2022-11-10T05:53:28.841Z,97448.03
2022-11-10T05:55:55.809Z,97447.06
2022-11-10T05:58:22.973Z,97453.88
2022-11-10T06:00:50.072Z,97457.16
2022-11-10T06:03:20.656Z,97461.31
2022-11-10T06:05:48.320Z,97462.25
2022-11-10T06:08:16.072Z,97469.78
2022-11-10T06:10:43.392Z,97482.56
2022-11-10T06:13:11.363Z,97492.78
2022-11-10T06:15:38.589Z,97505.66
2022-11-10T06:18:05.921Z,97512.41
2022-11-10T06:20:34.561Z,97508.97
2022-11-10T06:23:03.576Z,97512.28
2022-11-10T06:25:32.466Z,97513.03
2022-11-10T06:28:00.149Z,97507.78
2022-11-10T06:30:28.571Z,97515.34
2022-11-10T06:32:55.931Z,97522.00
2022-11-10T06:35:23.776Z,97534.84
2022-11-10T06:38:04.494Z,97536.41
2022-11-10T06:40:32.860Z,97533.69
2022-11-10T06:43:00.507Z,97537.06
2022-11-10T06:45:28.811Z,97546.34
2022-11-10T06:48:03.086Z,97556.53
2022-11-10T06:50:30.424Z,97560.72
2022-11-10T06:52:58.765Z,97576.91
2022-11-10T06:55:28.198Z,97580.41
2022-11-10T06:57:55.661Z,97587.22
2022-11-10T07:00:23.842Z,97587.13
2022-11-10T07:02:59.980Z,97599.00
2022-11-10T07:05:27.508Z,97604.03
2022-11-10T07:07:55.023Z,97603.97
2022-11-10T07:10:22.565Z,97612.50
2022-11-10T07:12:56.501Z,97600.41
2022-11-10T07:15:23.709Z,97613.16
2022-11-10T07:17:50.975Z,97613.97
2022-11-10T07:20:18.404Z,97619.81
2022-11-10T07:22:45.591Z,97616.50
2022-11-10T07:25:13.119Z,97627.50
2022-11-10T07:27:40.276Z,97620.63
2022-11-10T07:30:10.577Z,97628.31
2022-11-10T07:32:37.851Z,97634.16
2022-11-10T07:35:05.506Z,97636.66
2022-11-10T07:37:32.651Z,97635.66
2022-11-10T07:39:59.870Z,97639.03
2022-11-10T07:42:27.017Z,97649.22
2022-11-10T07:44:54.232Z,97655.16
2022-11-10T07:47:24.624Z,97650.00
2022-11-10T07:49:51.845Z,97662.81
2022-11-10T07:52:19.375Z,97654.97
2022-11-10T07:54:46.879Z,97653.94
2022-11-10T07:57:13.941Z,97654.72
2022-11-10T07:59:41.645Z,97661.59
2022-11-10T08:02:11.224Z,97669.19
2022-11-10T08:04:39.867Z,97671.66
2022-11-10T08:07:07.467Z,97669.78
2022-11-10T08:09:34.567Z,97688.69
2022-11-10T08:12:01.483Z,97678.22
2022-11-10T08:14:29.056Z,97684.91
2022-11-10T08:16:56.505Z,97696.91
2022-11-10T08:19:23.760Z,97697.78
2022-11-10T08:21:52.730Z,97702.78
2022-11-10T08:24:20.100Z,97695.84
2022-11-10T08:26:47.290Z,97702.59
2022-11-10T08:29:15.389Z,97709.41
2022-11-10T08:31:42.760Z,97724.03
2022-11-10T08:34:10.164Z,97720.56
2022-11-10T08:36:37.358Z,97734.16
2022-11-10T08:39:06.407Z,97726.47
2022-11-10T08:41:34.711Z,97744.59
2022-11-10T08:44:01.903Z,97744.59
2022-11-10T08:46:29.263Z,97747.28
2022-11-10T08:48:56.268Z,97757.59
2022-11-10T08:51:23.692Z,97759.22
2022-11-10T08:53:51.213Z,97769.41
2022-11-10T08:56:19.799Z,97767.50
2022-11-10T08:58:53.036Z,97769.97
2022-11-10T09:01:20.947Z,97784.50
2022-11-10T09:03:48.326Z,97796.66
2022-11-10T09:06:15.248Z,97792.34
2022-11-10T09:08:42.464Z,97788.69
2022-11-10T09:11:09.661Z,97807.44
2022-11-10T09:13:39.359Z,97808.09
2022-11-10T09:16:07.453Z,97816.63
2022-11-10T09:18:35.032Z,97820.06
2022-11-10T09:21:04.805Z,97825.16
2022-11-10T09:23:32.245Z,97815.44
2022-11-10T09:26:00.169Z,97839.44
2022-11-10T09:28:27.677Z,97834.13
2022-11-10T09:30:56.782Z,97847.81
2022-11-10T09:33:24.876Z,97830.56
2022-11-10T09:35:57.337Z,97848.50
2022-11-10T09:38:24.508Z,97855.22
2022-11-10T09:40:59.979Z,97859.38
2022-11-10T09:43:33.438Z,97856.72
2022-11-10T09:46:13.287Z,97866.19
2022-11-10T09:48:47.979Z,97874.81
2022-11-10T09:51:19.750Z,97867.16
2022-11-10T09:53:51.834Z,97879.94
2022-11-10T09:56:23.504Z,97870.53
2022-11-10T09:58:51.763Z,97877.28
2022-11-10T10:01:31.402Z,97874.63
2022-11-10T10:04:07.539Z,97880.56
2022-11-10T10:07:04.951Z,97878.78
2022-11-10T10:09:39.937Z,97888.94
2022-11-10T10:12:21.874Z,97890.59
2022-11-10T10:15:15.034Z,97884.50
2022-11-10T10:17:52.300Z,97886.97
2022-11-10T10:20:27.718Z,97891.22
2022-11-10T10:23:10.898Z,97889.50
2022-11-10T10:25:40.120Z,97880.00
2022-11-10T10:28:13.623Z,97888.53
2022-11-10T10:30:41.584Z,97891.13
2022-11-10T10:33:20.156Z,97886.78
2022-11-10T10:35:49.871Z,97891.84
2022-11-10T10:38:23.911Z,97883.97
2022-11-10T10:40:53.617Z,97893.34
2022-11-10T10:43:21.153Z,97891.44
2022-11-10T10:46:07.353Z,97893.13
2022-11-10T10:48:35.950Z,97889.66
2022-11-10T10:51:02.866Z,97882.78
2022-11-10T10:53:30.330Z,97895.56
2022-11-10T10:55:59.816Z,97898.81
2022-11-10T10:58:29.095Z,97891.84
2022-11-10T11:01:05.740Z,97896.06
2022-11-10T11:03:44.157Z,97901.13
2022-11-10T11:06:22.619Z,97908.63
2022-11-10T11:09:00.015Z,97907.63
2022-11-10T11:11:30.715Z,97903.34
2022-11-10T11:14:20.977Z,97908.41
2022-11-10T11:16:50.778Z,97911.69
2022-11-10T11:19:22.095Z,97917.63
2022-11-10T11:22:17.400Z,97919.34
2022-11-10T11:24:48.823Z,97910.75
2022-11-10T11:27:24.319Z,97916.69
2022-11-10T11:30:08.885Z,97915.00
2022-11-10T11:33:17.943Z,97912.34
2022-11-10T11:35:51.812Z,97917.47
2022-11-10T11:38:26.838Z,97919.13
2022-11-10T11:41:02.065Z,97913.88
2022-11-10T11:44:05.295Z,97918.06
2022-11-10T11:46:43.668Z,97929.09
2022-11-10T11:49:42.289Z,97923.03
2022-11-10T11:52:21.864Z,97934.94
2022-11-10T11:55:07.076Z,97928.81
2022-11-10T11:57:50.553Z,97935.63
2022-11-10T12:00:19.438Z,97940.72
2022-11-10T12:03:09.311Z,97939.69
2022-11-10T12:05:49.452Z,97935.63
2022-11-10T12:08:30.127Z,97942.53
2022-11-10T12:11:08.930Z,97949.47
2022-11-10T12:13:44.497Z,97941.75
2022-11-10T12:16:18.995Z,97942.53
2022-11-10T12:18:51.677Z,97938.34
2022-11-10T12:21:24.762Z,97942.59
2022-11-10T12:24:19.407Z,97951.25
2022-11-10T12:26:53.989Z,97948.47
2022-11-10T12:29:30.815Z,97949.44
2022-11-10T12:32:06.550Z,97952.78
2022-11-10T12:34:41.245Z,97950.97
2022-11-10T12:37:17.977Z,97952.97
2022-11-10T12:39:54.847Z,97959.94
2022-11-10T12:42:24.972Z,97952.06
2022-11-10T12:44:59.354Z,97959.78
2022-11-10T12:47:32.004Z,97961.44
2022-11-10T12:50:18.146Z,97966.38
2022-11-10T12:52:54.011Z,97973.13
2022-11-10T12:55:29.117Z,97972.19
2022-11-10T12:57:56.687Z,97974.59
2022-11-10T13:00:28.139Z,97983.16
2022-11-10T13:02:57.431Z,97980.47
2022-11-10T13:05:35.213Z,97981.28
2022-11-10T13:08:24.561Z,97997.59
2022-11-10T13:10:56.837Z,97997.41
2022-11-10T13:13:25.084Z,98003.38
2022-11-10T13:15:56.026Z,97999.06
2022-11-10T13:18:51.573Z,97990.44
2022-11-10T13:21:18.789Z,98002.56
2022-11-10T13:24:22.029Z,97990.38
2022-11-10T13:26:55.872Z,97993.72
2022-11-10T13:29:36.122Z,97991.00
2022-11-10T13:32:27.044Z,97991.13
2022-11-10T13:34:55.767Z,97994.59
2022-11-10T13:37:47.245Z,97992.84
2022-11-10T13:40:37.310Z,97990.88
2022-11-10T13:43:27.283Z,97996.00
2022-11-10T13:46:05.943Z,97999.28
2022-11-10T13:48:59.050Z,98000.81
2022-11-10T13:51:37.471Z,97997.28
2022-11-10T13:54:30.537Z,97997.16
2022-11-10T13:57:13.412Z,98003.94
2022-11-10T13:59:49.610Z,98011.59
2022-11-10T14:02:59.442Z,98003.81
2022-11-10T14:06:03.029Z,98015.63
2022-11-10T14:08:38.885Z,98018.22
2022-11-10T14:11:12.676Z,98014.75
2022-11-10T14:13:44.657Z,98022.63
2022-11-10T14:16:19.328Z,98020.94
2022-11-10T14:18:54.126Z,98032.28
2022-11-10T14:21:26.037Z,98043.44
2022-11-10T14:23:59.223Z,98038.38
2022-11-10T14:26:32.167Z,98042.59
2022-11-10T14:29:35.257Z,98050.31
2022-11-10T14:32:06.235Z,98044.38
2022-11-10T14:34:43.907Z,98059.94
2022-11-10T14:37:17.878Z,98041.63
2022-11-10T14:39:45.136Z,98044.22
2022-11-10T14:42:18.991Z,98057.25
2022-11-10T14:44:46.213Z,98055.63
2022-11-10T14:47:23.696Z,98049.56
2022-11-10T14:50:07.733Z,98043.63
2022-11-10T14:52:40.280Z,98054.03
2022-11-10T14:55:13.723Z,98044.63
2022-11-10T14:57:41.424Z,98043.84
2022-11-10T15:00:15.528Z,98050.66
2022-11-10T15:02:44.562Z,98049.09
2022-11-10T15:05:14.094Z,98046.59
2022-11-10T15:07:41.765Z,98060.41
2022-11-10T15:10:15.992Z,98053.78
2022-11-10T15:12:44.825Z,98056.41
2022-11-10T15:15:19.852Z,98052.19
2022-11-10T15:17:50.715Z,98052.41
2022-11-10T15:20:41.726Z,98063.75
2022-11-10T15:23:22.594Z,98063.97
2022-11-10T15:25:53.137Z,98053.72
2022-11-10T15:28:29.874Z,98061.59
2022-11-10T15:30:59.680Z,98076.44
2022-11-10T15:33:33.107Z,98093.84
2022-11-10T15:36:16.516Z,98086.28
2022-11-10T15:38:43.628Z,98090.63
2022-11-10T15:41:20.696Z,98086.44
2022-11-10T15:43:49.855Z,98098.63
2022-11-10T15:46:20.013Z,98078.09
2022-11-10T15:48:51.736Z,98086.84
2022-11-10T15:51:24.718Z,98089.59
2022-11-10T15:53:54.686Z,98093.19
2022-11-10T15:56:23.766Z,98096.84
2022-11-10T15:58:52.692Z,98098.72
2022-11-10T16:01:20.897Z,98095.44
2022-11-10T16:03:50.531Z,98094.94
2022-11-10T16:06:17.689Z,98097.78
2022-11-10T16:08:44.841Z,98109.13
2022-11-10T16:11:17.683Z,98128.34
2022-11-10T16:13:46.314Z,98124.97
2022-11-10T16:16:15.040Z,98124.09
2022-11-10T16:18:43.981Z,98120.91
2022-11-10T16:21:14.227Z,98132.09
2022-11-10T16:23:41.500Z,98129.72
2022-11-10T16:26:13.793Z,98140.25
2022-11-10T16:28:41.508Z,98147.47
2022-11-10T16:31:10.669Z,98131.47
2022-11-10T16:33:37.986Z,98133.41
2022-11-10T16:36:05.888Z,98145.41
2022-11-10T16:38:34.597Z,98142.81
2022-11-10T16:41:03.779Z,98143.84
2022-11-10T16:43:31.992Z,98162.03
2022-11-10T16:46:03.596Z,98155.22
2022-11-10T16:48:34.229Z,98170.06
2022-11-10T16:51:02.973Z,98167.59
2022-11-10T16:53:32.319Z,98172.75
2022-11-10T16:56:01.927Z,98172.81
2022-11-10T16:58:29.505Z,98179.78
2022-11-10T17:00:59.678Z,98184.19
2022-11-10T17:03:32.727Z,98186.72
2022-11-10T17:06:00.428Z,98191.88
2022-11-10T17:08:30.291Z,98190.94
2022-11-10T17:10:57.898Z,98203.91
2022-11-10T17:13:29.356Z,98202.16
2022-11-10T17:16:06.963Z,98204.63
2022-11-10T17:18:35.782Z,98220.88
2022-11-10T17:21:06.258Z,98222.59
2022-11-10T17:23:34.109Z,98228.47
2022-11-10T17:26:01.780Z,98223.97
2022-11-10T17:28:30.372Z,98216.34
2022-11-10T17:30:57.971Z,98232.69
2022-11-10T17:33:27.371Z,98234.53
2022-11-10T17:35:57.173Z,98232.16
2022-11-10T17:38:26.335Z,98234.72
2022-11-10T17:40:54.521Z,98233.06
2022-11-10T17:43:23.067Z,98245.22
2022-11-10T17:45:52.856Z,98241.91
2022-11-10T17:48:20.968Z,98238.56
2022-11-10T17:50:48.445Z,98242.03
2022-11-10T17:53:20.170Z,98244.59
2022-11-10T17:55:48.895Z,98247.31
2022-11-10T17:58:18.331Z,98250.91
2022-11-10T18:00:46.355Z,98263.97
2022-11-10T18:03:18.473Z,98276.00
2022-11-10T18:05:47.431Z,98269.09
2022-11-10T18:08:17.234Z,98274.38
2022-11-10T18:10:48.520Z,98270.16
2022-11-10T18:13:16.201Z,98267.72
2022-11-10T18:15:44.510Z,98273.81
2022-11-10T18:18:14.114Z,98280.88
2022-11-10T18:20:46.304Z,98281.94
2022-11-10T18:23:13.960Z,98288.94
2022-11-10T18:25:43.304Z,98287.16
2022-11-10T18:28:16.396Z,98278.56
2022-11-10T18:30:45.145Z,98276.09
2022-11-10T18:33:13.611Z,98285.78
2022-11-10T18:35:44.281Z,98285.84
2022-11-10T18:38:14.469Z,98291.97
2022-11-10T18:40:42.572Z,98305.84
2022-11-10T18:43:11.281Z,98303.34
2022-11-10T18:45:38.950Z,98292.28
2022-11-10T18:48:07.960Z,98289.78
2022-11-10T18:50:38.605Z,98294.13
2022-11-10T18:53:08.440Z,98296.75
2022-11-10T18:55:36.324Z,98301.97
2022-11-10T18:58:04.324Z,98301.19
2022-11-10T19:00:31.943Z,98312.44
2022-11-10T19:03:01.102Z,98317.72
2022-11-10T19:05:31.191Z,98325.41
2022-11-10T19:08:00.964Z,98322.84
2022-11-10T19:10:31.511Z,98334.84
2022-11-10T19:13:02.759Z,98331.44
2022-11-10T19:15:31.905Z,98346.94
2022-11-10T19:18:00.292Z,98349.53
2022-11-10T19:20:28.534Z,98346.16
2022-11-10T19:22:57.154Z,98342.00
2022-11-10T19:25:29.943Z,98352.38
2022-11-10T19:27:59.759Z,98362.72
2022-11-10T19:30:27.859Z,98365.28
2022-11-10T19:32:56.062Z,98374.75
2022-11-10T19:35:24.164Z,98368.81
2022-11-10T19:37:52.151Z,98369.72
2022-11-10T19:40:22.750Z,98366.41
2022-11-10T19:42:50.986Z,98368.16
2022-11-10T19:45:21.152Z,98361.28
2022-11-10T19:47:49.446Z,98367.19
2022-11-10T19:50:17.147Z,98368.13
2022-11-10T19:52:44.839Z,98362.97
2022-11-10T19:55:12.634Z,98365.66
2022-11-10T19:57:40.713Z,98373.50
2022-11-10T20:00:10.713Z,98370.19
2022-11-10T20:02:46.051Z,98371.00
2022-11-10T20:05:13.771Z,98360.72
2022-11-10T20:07:41.606Z,98373.72
2022-11-10T20:10:13.534Z,98371.22
2022-11-10T20:12:42.482Z,98378.19
2022-11-10T20:15:12.335Z,98377.41
2022-11-10T20:17:45.279Z,98371.56
2022-11-10T20:20:15.073Z,98379.38
2022-11-10T20:22:42.817Z,98379.47
2022-11-10T20:25:10.693Z,98395.88
2022-11-10T20:27:38.467Z,98400.19
2022-11-10T20:30:07.911Z,98404.53
2022-11-10T20:32:35.554Z,98411.44
2022-11-10T20:35:07.400Z,98408.94
2022-11-10T20:37:35.956Z,98415.81
2022-11-10T20:40:07.412Z,98415.78
2022-11-10T20:42:46.872Z,98414.00
2022-11-10T20:45:14.795Z,98413.03
2022-11-10T20:47:43.836Z,98416.34
2022-11-10T20:50:16.368Z,98412.88
2022-11-10T20:52:47.914Z,98424.03
2022-11-10T20:55:18.418Z,98434.28
2022-11-10T20:57:46.929Z,98425.75
2022-11-10T21:00:16.831Z,98442.88
2022-11-10T21:02:44.874Z,98438.75
2022-11-10T21:05:13.903Z,98440.50
2022-11-10T21:07:41.424Z,98445.66
2022-11-10T21:10:09.795Z,98442.25
2022-11-10T21:12:37.625Z,98445.63
2022-11-10T21:15:07.278Z,98449.06
2022-11-10T21:17:34.365Z,98450.78
2022-11-10T21:20:01.596Z,98445.63
2022-11-10T21:22:33.869Z,98443.94
2022-11-10T21:25:01.261Z,98449.88
2022-11-10T21:27:28.373Z,98445.72
2022-11-10T21:29:55.701Z,98449.28
2022-11-10T21:32:23.026Z,98441.66
2022-11-10T21:34:50.382Z,98446.94
2022-11-10T21:37:17.666Z,98458.13
2022-11-10T21:39:46.435Z,98459.97
2022-11-10T21:42:13.811Z,98476.28
2022-11-10T21:44:40.713Z,98473.75
2022-11-10T21:47:07.746Z,98480.56
2022-11-10T21:49:34.828Z,98474.53
2022-11-10T21:52:01.755Z,98481.41
2022-11-10T21:54:28.713Z,98479.72
2022-11-10T21:56:57.430Z,98491.59
2022-11-10T21:59:24.753Z,98492.50
2022-11-10T22:01:52.076Z,98496.91
2022-11-10T22:04:19.371Z,98498.69
2022-11-10T22:06:46.591Z,98505.66
2022-11-10T22:09:13.671Z,98493.69
2022-11-10T22:11:40.964Z,98492.91
2022-11-10T22:14:14.050Z,98485.22
2022-11-10T22:16:45.115Z,98495.41
2022-11-10T22:19:12.471Z,98495.50
2022-11-10T22:21:40.026Z,98497.25
2022-11-10T22:24:07.294Z,98481.03
2022-11-10T22:26:34.248Z,98490.50
2022-11-10T22:29:01.358Z,98494.78
2022-11-10T22:31:33.542Z,98499.94
2022-11-10T22:34:00.720Z,98500.81
2022-11-10T22:36:27.809Z,98503.34
2022-11-10T22:39:00.497Z,98506.88
2022-11-10T22:41:30.161Z,98500.00
2022-11-10T22:43:57.228Z,98509.50
2022-11-10T22:46:24.233Z,98510.38
2022-11-10T22:48:53.019Z,98509.50
2022-11-10T22:51:20.105Z,98499.31
2022-11-10T22:53:47.351Z,98513.06
2022-11-10T22:56:14.508Z,98507.94
2022-11-10T22:58:41.651Z,98510.50
2022-11-10T23:01:10.717Z,98503.66
2022-11-10T23:03:38.783Z,98513.91
2022-11-10T23:06:08.295Z,98508.78
2022-11-10T23:08:36.307Z,98499.38
2022-11-10T23:11:05.746Z,98501.09
2022-11-10T23:13:33.953Z,98496.00
2022-11-10T23:16:02.737Z,98496.84
2022-11-10T23:18:29.919Z,98510.63
2022-11-10T23:20:59.039Z,98512.31
2022-11-10T23:23:28.804Z,98508.91
2022-11-10T23:25:57.607Z,98510.63
2022-11-10T23:28:24.867Z,98502.03
2022-11-10T23:30:52.004Z,98506.31
2022-11-10T23:33:19.269Z,98508.91
2022-11-10T23:35:46.196Z,98515.78
2022-11-10T23:38:13.575Z,98513.25
2022-11-10T23:40:42.068Z,98517.53
2022-11-10T23:43:09.111Z,98512.38
2022-11-10T23:46:00.477Z,98522.69
2022-11-10T23:48:23.857Z,98520.13
2022-11-10T23:50:52.304Z,98510.75
2022-11-10T23:53:20.277Z,98502.16
2022-11-10T23:55:56.485Z,98507.31
2022-11-10T23:58:23.760Z,98512.47
